| time (UTC) | temp F | wind direction | speed MPH | gust MPH | rain 1hr in | rain 24hr in | rain mn in | humidity % | barometer mb |
| 20260508151520 | 58 | 273 | 3.0 | 7.0 | 0.00 | 0.00 | 0.00 | 56 | 1014.1 |
| 20260508150021 | 57 | 265 | 4.0 | 9.0 | 0.00 | 0.00 | 0.00 | 59 | 1014.3 |
| 20260508144513 | 56 | 227 | 4.0 | 6.0 | 0.00 | 0.00 | 0.00 | 59 | 1014.3 |
| 20260508143013 | 55 | 248 | 2.0 | 7.0 | 0.00 | 0.00 | 0.00 | 62 | 1014.5 |
| 20260508141505 | 53 | 262 | 2.0 | 10.0 | 0.00 | 0.00 | 0.00 | 65 | 1014.6 |
| 20260508140109 | 50 | 238 | 3.0 | 7.0 | 0.00 | 0.00 | 0.00 | 66 | 1014.5 |
| 20260508134606 | 48 | 236 | 3.0 | 7.0 | 0.00 | 0.00 | 0.00 | 68 | 1014.6 |
| 20260508133057 | 47 | 228 | 1.0 | 4.0 | 0.00 | 0.00 | 0.00 | 69 | 1014.6 |
| 20260508131555 | 45 | 161 | 0.0 | 0.0 | 0.00 | 0.00 | 0.00 | 70 | 1014.5 |
| 20260508130054 | 44 | 165 | 0.0 | 1.0 | 0.00 | 0.00 | 0.00 | 70 | 1014.5 |
| 20260508124524 | 42 | 323 | 0.0 | 1.0 | 0.00 | 0.00 | 0.00 | 75 | 1014.5 |
| 20260508123024 | 39 | 298 | 0.0 | 2.0 | 0.00 | 0.00 | 0.00 | 77 | 1014.5 |
| 20260508121552 | 39 | 296 | 0.0 | 1.0 | 0.00 | 0.00 | 0.00 | 76 | 1014.4 |
| 20260508120051 | 39 | 295 | 0.0 | 2.0 | 0.00 | 0.00 | 0.00 | 76 | 1014.4 |
| 20260508114551 | 41 | 296 | 1.0 | 1.0 | 0.00 | 0.00 | 0.00 | 73 | 1014.6 |
| 20260508113044 | 43 | 295 | 0.0 | 2.0 | 0.00 | 0.00 | 0.00 | 73 | 1014.6 |
| 20260508111556 | 42 | 343 | 1.0 | 4.0 | 0.00 | 0.00 | 0.00 | 74 | 1014.6 |
| 20260508110037 | 41 | 355 | 0.0 | 2.0 | 0.00 | 0.00 | 0.00 | 72 | 1014.6 |
| 20260508104537 | 43 | 311 | 0.0 | 2.0 | 0.00 | 0.00 | 0.00 | 68 | 1014.6 |
| 20260508103036 | 44 | 297 | 0.0 | 1.0 | 0.00 | 0.00 | 0.00 | 67 | 1014.8 |
| 20260508101532 | 46 | 306 | 0.0 | 3.0 | 0.00 | 0.00 | 0.00 | 65 | 1014.8 |
| 20260508100031 | 46 | 299 | 0.0 | 3.0 | 0.00 | 0.00 | 0.00 | 64 | 1014.9 |
| 20260508094530 | 46 | 300 | 1.0 | 4.0 | 0.00 | 0.00 | 0.00 | 64 | 1014.7 |
| 20260508093028 | 47 | 331 | 1.0 | 4.0 | 0.00 | 0.00 | 0.00 | 62 | 1014.8 |
| 20260508091527 | 44 | 300 | 1.0 | 3.0 | 0.00 | 0.00 | 0.00 | 66 | 1014.8 |
| 20260508090026 | 43 | 307 | 0.0 | 2.0 | 0.00 | 0.00 | 0.00 | 66 | 1014.8 |
| 20260508084525 | 41 | 49 | 0.0 | 2.0 | 0.00 | 0.00 | 0.00 | 66 | 1014.9 |
| 20260508083021 | 42 | 95 | 0.0 | 2.0 | 0.00 | 0.00 | 0.00 | 61 | 1014.7 |
| 20260508081519 | 44 | 302 | 0.0 | 2.0 | 0.00 | 0.00 | 0.00 | 59 | 1014.6 |
| 20260508080018 | 46 | 280 | 1.0 | 4.0 | 0.00 | 0.00 | 0.00 | 56 | 1014.8 |
| 20260508074518 | 46 | 301 | 0.0 | 3.0 | 0.00 | 0.00 | 0.00 | 57 | 1014.7 |
| 20260508073050 | 46 | 301 | 2.0 | 4.0 | 0.00 | 0.00 | 0.00 | 58 | 1014.6 |
| 20260508071546 | 46 | 300 | 0.0 | 3.0 | 0.00 | 0.00 | 0.00 | 56 | 1014.7 |
| 20260508070043 | 49 | 342 | 1.0 | 4.0 | 0.00 | 0.00 | 0.00 | 54 | 1014.7 |
| 20260508064541 | 48 | 283 | 2.0 | 5.0 | 0.00 | 0.00 | 0.00 | 57 | 1014.6 |
| 20260508063038 | 45 | 330 | 0.0 | 5.0 | 0.00 | 0.00 | 0.00 | 62 | 1014.6 |
| 20260508061538 | 43 | 257 | 0.0 | 0.0 | 0.00 | 0.00 | 0.00 | 65 | 1014.5 |
| 20260508060031 | 43 | 333 | 0.0 | 0.0 | 0.00 | 0.00 | 0.00 | 63 | 1014.5 |
| 20260508054530 | 45 | 60 | 0.0 | 0.0 | 0.00 | 0.00 | 0.00 | 63 | 1014.5 |
| 20260508053031 | 46 | 62 | 1.0 | 2.0 | 0.00 | 0.00 | 0.00 | 60 | 1014.5 |
| 20260508051531 | 46 | 62 | 1.0 | 4.0 | 0.00 | 0.00 | 0.00 | 61 | 1014.5 |
| 20260508050025 | 46 | 295 | 0.0 | 2.0 | 0.00 | 0.00 | 0.00 | 60 | 1014.3 |
| 20260508044525 | 47 | 302 | 0.0 | 1.0 | 0.00 | 0.00 | 0.00 | 58 | 1014.4 |
| 20260508043125 | 50 | 298 | 0.0 | 2.0 | 0.00 | 0.00 | 0.00 | 56 | 1014.4 |
| 20260508041523 | 52 | 295 | 0.0 | 3.0 | 0.00 | 0.00 | 0.00 | 54 | 1014.4 |
| 20260508040022 | 53 | 282 | 0.0 | 2.0 | 0.00 | 0.00 | 0.00 | 53 | 1014.4 |
| 20260508034523 | 56 | 261 | 0.0 | 3.0 | 0.00 | 0.00 | 0.00 | 49 | 1014.3 |
| 20260508033020 | 57 | 288 | 3.0 | 6.0 | 0.00 | 0.00 | 0.00 | 47 | 1014.4 |
| 20260508031524 | 58 | 257 | 2.0 | 6.0 | 0.00 | 0.00 | 0.00 | 47 | 1014.2 |
| 20260508030049 | 59 | 240 | 5.0 | 8.0 | 0.00 | 0.00 | 0.00 | 45 | 1014.0 |
| 20260508024555 | 60 | 276 | 4.0 | 7.0 | 0.00 | 0.00 | 0.00 | 44 | 1013.9 |
| 20260508023045 | 60 | 245 | 0.0 | 4.0 | 0.00 | 0.00 | 0.00 | 47 | 1013.7 |
| 20260508021545 | 61 | 249 | 0.0 | 2.0 | 0.00 | 0.00 | 0.00 | 48 | 1013.5 |
| 20260508020045 | 61 | 255 | 0.0 | 0.0 | 0.00 | 0.00 | 0.00 | 48 | 1013.3 |
| 20260508014544 | 62 | 247 | 3.0 | 7.0 | 0.00 | 0.00 | 0.00 | 46 | 1013.2 |
| 20260508013041 | 62 | 255 | 4.0 | 8.0 | 0.00 | 0.00 | 0.00 | 46 | 1013.1 |
| 20260508011541 | 64 | 260 | 6.0 | 10.0 | 0.00 | 0.00 | 0.00 | 44 | 1013.0 |
| 20260508010041 | 64 | 229 | 5.0 | 13.0 | 0.00 | 0.00 | 0.00 | 43 | 1013.1 |
| 20260508004542 | 64 | 252 | 6.0 | 11.0 | 0.00 | 0.00 | 0.00 | 45 | 1013.2 |
| 20260508003035 | 64 | 274 | 7.0 | 11.0 | 0.00 | 0.00 | 0.00 | 42 | 1013.2 |
| 20260508001535 | 67 | 239 | 6.0 | 13.0 | 0.00 | 0.00 | 0.00 | 35 | 1012.9 |
| 20260508000035 | 66 | 274 | 4.0 | 8.0 | 0.00 | 0.00 | 0.00 | 32 | 1013.0 |
| 20260507234539 | 66 | 19 | 6.0 | 18.0 | 0.00 | 0.00 | 0.00 | 33 | 1012.8 |
| 20260507233033 | 68 | 7 | 9.0 | 14.0 | 0.00 | 0.00 | 0.00 | 30 | 1012.7 |
| 20260507231535 | 68 | 329 | 6.0 | 12.0 | 0.00 | 0.00 | 0.00 | 31 | 1012.7 |
| 20260507230029 | 69 | 312 | 6.0 | 21.0 | 0.00 | 0.00 | 0.00 | 29 | 1012.8 |
| 20260507224530 | 70 | 344 | 5.0 | 11.0 | 0.00 | 0.00 | 0.00 | 29 | 1012.8 |
| 20260507223025 | 67 | 328 | 5.0 | 16.0 | 0.00 | 0.00 | 0.00 | 30 | 1013.0 |
| 20260507221523 | 68 | 316 | 4.0 | 17.0 | 0.00 | 0.00 | 0.00 | 31 | 1013.1 |
| 20260507220022 | 68 | 296 | 5.0 | 11.0 | 0.00 | 0.00 | 0.00 | 30 | 1013.0 |
| 20260507214525 | 69 | 333 | 7.0 | 15.0 | 0.00 | 0.00 | 0.00 | 29 | 1013.1 |
| 20260507213020 | 70 | 345 | 9.0 | 15.0 | 0.00 | 0.00 | 0.00 | 29 | 1013.2 |
| 20260507211518 | 69 | 328 | 9.0 | 16.0 | 0.00 | 0.00 | 0.00 | 29 | 1013.3 |
| 20260507210016 | 69 | 314 | 5.0 | 12.0 | 0.00 | 0.00 | 0.00 | 29 | 1013.5 |
| 20260507204515 | 69 | 328 | 5.0 | 20.0 | 0.00 | 0.00 | 0.00 | 31 | 1013.5 |
| 20260507203017 | 68 | 26 | 8.0 | 18.0 | 0.00 | 0.00 | 0.00 | 30 | 1013.7 |
| 20260507203015 | 68 | 354 | 8.0 | 18.0 | 0.00 | 0.00 | 0.00 | 30 | 1013.7 |
| 20260507201512 | 67 | 289 | 7.0 | 14.0 | 0.00 | 0.00 | 0.00 | 32 | 1013.6 |
| 20260507200011 | 66 | 348 | 9.0 | 18.0 | 0.00 | 0.00 | 0.00 | 33 | 1013.7 |
| 20260507194509 | 65 | 349 | 10.0 | 17.0 | 0.00 | 0.00 | 0.00 | 33 | 1013.6 |
| 20260507193008 | 66 | 311 | 5.0 | 11.0 | 0.00 | 0.00 | 0.00 | 34 | 1013.4 |
| 20260507191504 | 68 | 331 | 3.0 | 14.0 | 0.00 | 0.00 | 0.00 | 33 | 1013.3 |
| 20260507190003 | 66 | 333 | 4.0 | 18.0 | 0.00 | 0.00 | 0.00 | 35 | 1013.5 |
| 20260507184501 | 66 | 290 | 2.0 | 12.0 | 0.00 | 0.00 | 0.00 | 36 | 1013.5 |
| 20260507183100 | 64 | 323 | 5.0 | 15.0 | 0.00 | 0.00 | 0.00 | 37 | 1013.7 |
| 20260507181558 | 65 | 322 | 11.0 | 20.0 | 0.00 | 0.00 | 0.00 | 35 | 1013.7 |
| 20260507180057 | 65 | 342 | 8.0 | 15.0 | 0.00 | 0.00 | 0.00 | 36 | 1013.8 |
| 20260507174605 | 65 | 337 | 5.0 | 13.0 | 0.00 | 0.00 | 0.00 | 37 | 1014.0 |
| 20260507173055 | 65 | 338 | 8.0 | 18.0 | 0.00 | 0.00 | 0.00 | 36 | 1014.1 |
| 20260507171523 | 65 | 328 | 9.0 | 20.0 | 0.00 | 0.00 | 0.00 | 36 | 1014.2 |
| 20260507170024 | 65 | 356 | 10.0 | 19.0 | 0.00 | 0.00 | 0.00 | 38 | 1014.2 |
| 20260507164520 | 65 | 352 | 8.0 | 18.0 | 0.00 | 0.00 | 0.00 | 38 | 1014.3 |
| 20260507163017 | 64 | 331 | 10.0 | 18.0 | 0.00 | 0.00 | 0.00 | 39 | 1014.1 |
| 20260507161522 | 64 | 347 | 10.0 | 19.0 | 0.00 | 0.00 | 0.00 | 39 | 1014.1 |
| 20260507160018 | 63 | 30 | 5.0 | 19.0 | 0.00 | 0.00 | 0.00 | 39 | 1014.0 |
| 20260507154511 | 63 | 323 | 3.0 | 8.0 | 0.00 | 0.00 | 0.00 | 40 | 1014.2 |
| 20260507153008 | 62 | 341 | 3.0 | 9.0 | 0.00 | 0.00 | 0.00 | 41 | 1014.1 |